Time;durP1;ratioP1;P1;durP2;ratioP2;P2;SDS_P1;SDS_P2;PMS_P1;PMS_P2;Temp;Humidity;BMP_temperature;BMP_pressure;BME280_temperature;BME280_humidity;BME280_pressure;Samples;Min_cycle;Max_cycle;Signal;HPM_P1;HPM_P2
2021/11/08 00:01:18;;;;;;;2.03;1.77;;;9.10;99.90;;;;;;5105170;28;20293;-70
2021/11/08 00:03:52;;;;;;;1.35;1.25;;;9.00;99.90;;;;;;5102973;28;20235;-68
2021/11/08 00:06:23;;;;;;;1.70;1.15;;;8.90;99.90;;;;;;5104217;28;20695;-70
2021/11/08 00:08:54;;;;;;;1.83;1.17;;;8.70;99.90;;;;;;5101983;28;20239;-70
2021/11/08 00:11:26;;;;;;;1.08;0.90;;;8.70;99.90;;;;;;5097480;28;20269;-70
2021/11/08 00:14:03;;;;;;;1.95;1.48;;;8.60;99.90;;;;;;5105085;28;20251;-75
2021/11/08 00:16:42;;;;;;;2.45;1.25;;;8.60;99.90;;;;;;5098587;28;20283;-70
2021/11/08 00:19:38;;;;;;;2.47;1.15;;;8.60;99.90;;;;;;5102011;28;20540;-74
2021/11/08 00:22:09;;;;;;;1.35;1.15;;;8.60;99.90;;;;;;5104769;28;20642;-74
2021/11/08 00:24:42;;;;;;;2.15;0.90;;;8.50;99.90;;;;;;5103282;28;20307;-70
2021/11/08 00:27:13;;;;;;;1.40;1.30;;;8.50;99.90;;;;;;5100066;28;20244;-73
2021/11/08 00:29:44;;;;;;;1.20;1.10;;;8.50;99.90;;;;;;5098597;28;20271;-72
2021/11/08 00:32:17;;;;;;;1.25;1.15;;;8.50;99.90;;;;;;5113743;28;20216;-71
2021/11/08 00:34:48;;;;;;;1.38;1.27;;;8.50;99.90;;;;;;5111696;28;20584;-69
2021/11/08 00:37:19;;;;;;;1.90;1.27;;;8.50;99.90;;;;;;5101444;28;20653;-71
2021/11/08 00:39:50;;;;;;;1.25;1.08;;;8.50;99.90;;;;;;5106384;28;20261;-71
2021/11/08 00:42:22;;;;;;;1.40;1.13;;;8.50;99.90;;;;;;5100391;28;20204;-70
2021/11/08 00:44:53;;;;;;;1.48;1.38;;;8.40;99.90;;;;;;5097780;28;20595;-70
2021/11/08 00:47:26;;;;;;;2.33;1.48;;;8.40;99.90;;;;;;5103411;28;20637;-70
2021/11/08 00:50:02;;;;;;;1.50;1.40;;;8.40;99.90;;;;;;5093478;28;20218;-70
2021/11/08 00:52:33;;;;;;;1.83;1.73;;;8.30;99.90;;;;;;5095792;28;20319;-71
2021/11/08 00:55:04;;;;;;;1.60;1.40;;;8.30;99.90;;;;;;5112442;28;20251;-69
2021/11/08 00:57:37;;;;;;;2.08;1.48;;;8.30;99.90;;;;;;5101499;28;20254;-69
2021/11/08 01:00:10;;;;;;;1.75;1.65;;;8.30;99.90;;;;;;5113155;28;20299;-70
2021/11/08 01:02:43;;;;;;;1.90;1.80;;;8.20;99.90;;;;;;5096839;28;20340;-70
2021/11/08 01:05:15;;;;;;;2.40;2.20;;;8.20;99.90;;;;;;5097751;28;20216;-71
2021/11/08 01:07:47;;;;;;;2.20;1.92;;;8.20;99.90;;;;;;5104124;28;20644;-70
2021/11/08 01:10:20;;;;;;;2.10;2.00;;;8.10;99.90;;;;;;5099364;28;20605;-70
2021/11/08 01:12:51;;;;;;;3.00;2.63;;;8.00;99.90;;;;;;5096483;28;20262;-75
2021/11/08 01:15:22;;;;;;;2.75;2.20;;;8.00;99.90;;;;;;5103296;28;20243;-73
2021/11/08 01:17:55;;;;;;;3.05;2.85;;;8.00;99.90;;;;;;5099420;28;20297;-70
2021/11/08 01:20:32;;;;;;;4.95;3.13;;;8.10;99.90;;;;;;5092840;28;20209;-70
2021/11/08 01:23:04;;;;;;;3.15;2.83;;;8.00;99.90;;;;;;5100063;28;20243;-70
2021/11/08 01:25:36;;;;;;;4.05;3.20;;;8.00;99.90;;;;;;5090786;28;20303;-72
2021/11/08 01:28:08;;;;;;;4.10;3.45;;;8.00;99.90;;;;;;5091810;28;20247;-74
2021/11/08 01:30:39;;;;;;;4.22;3.83;;;8.10;99.90;;;;;;5105342;28;20215;-72
2021/11/08 01:33:16;;;;;;;3.92;3.53;;;8.10;99.90;;;;;;5095655;28;20248;-72
2021/11/08 01:35:58;;;;;;;3.85;3.28;;;8.20;99.90;;;;;;5099547;28;20299;-68
2021/11/08 01:38:37;;;;;;;4.47;4.05;;;8.20;99.90;;;;;;5096767;28;20251;-70
2021/11/08 01:41:09;;;;;;;4.72;4.10;;;8.20;99.90;;;;;;5098142;28;20243;-69
2021/11/08 01:43:41;;;;;;;4.50;4.10;;;8.20;99.90;;;;;;5089862;28;20248;-68
2021/11/08 01:46:12;;;;;;;4.60;4.20;;;8.20;99.90;;;;;;5104149;28;20243;-68
2021/11/08 01:48:46;;;;;;;6.00;4.05;;;8.20;99.90;;;;;;5099162;28;20235;-68
2021/11/08 01:51:17;;;;;;;5.93;5.07;;;8.20;99.90;;;;;;5100757;28;20250;-69
2021/11/08 01:53:49;;;;;;;5.00;4.00;;;8.30;99.90;;;;;;5104103;28;20250;-68
2021/11/08 01:56:21;;;;;;;5.22;4.47;;;8.30;99.90;;;;;;5099257;28;20281;-68
2021/11/08 01:58:52;;;;;;;4.55;4.00;;;8.30;99.90;;;;;;5095410;28;20270;-68
2021/11/08 02:01:24;;;;;;;5.10;4.60;;;8.40;99.90;;;;;;5093894;28;20235;-69
2021/11/08 02:03:57;;;;;;;4.88;4.50;;;8.40;99.90;;;;;;5106432;28;20266;-70
2021/11/08 02:06:28;;;;;;;3.28;3.08;;;8.50;99.90;;;;;;5099673;28;20212;-70
2021/11/08 02:08:59;;;;;;;3.97;3.58;;;8.50;99.90;;;;;;5099488;28;20235;-69
2021/11/08 02:11:33;;;;;;;3.83;3.53;;;8.60;99.90;;;;;;5101762;28;20243;-70
2021/11/08 02:14:05;;;;;;;4.05;3.65;;;8.60;99.90;;;;;;5109870;28;20262;-70
2021/11/08 02:16:36;;;;;;;4.57;4.18;;;8.60;99.90;;;;;;5099749;28;20663;-70
2021/11/08 02:19:10;;;;;;;3.88;3.25;;;8.60;99.90;;;;;;5104830;28;20234;-70
2021/11/08 02:21:43;;;;;;;4.63;4.25;;;8.50;99.90;;;;;;5097835;28;20204;-70
2021/11/08 02:24:17;;;;;;;4.50;4.10;;;8.50;99.90;;;;;;5109146;28;20211;-69
2021/11/08 02:26:48;;;;;;;16.38;7.90;;;8.60;99.90;;;;;;5091577;28;21242;-72
2021/11/08 02:29:19;;;;;;;6.05;5.55;;;8.60;99.90;;;;;;5103462;28;20273;-69
2021/11/08 02:31:51;;;;;;;5.43;4.93;;;8.70;99.90;;;;;;5099760;28;20250;-68
2021/11/08 02:34:23;;;;;;;5.25;4.75;;;8.60;99.90;;;;;;5110443;28;20251;-70
2021/11/08 02:36:56;;;;;;;5.72;5.22;;;8.60;99.90;;;;;;5109181;28;20693;-71
2021/11/08 02:39:31;;;;;;;5.43;4.93;;;8.60;99.90;;;;;;5099470;28;20239;-69
2021/11/08 02:42:03;;;;;;;4.35;4.03;;;8.60;99.90;;;;;;5100722;28;20235;-69
2021/11/08 02:44:34;;;;;;;4.32;3.92;;;8.70;99.90;;;;;;5107776;28;20250;-69
2021/11/08 02:47:05;;;;;;;4.45;4.05;;;8.70;99.90;;;;;;5102582;28;20240;-70
2021/11/08 02:49:40;;;;;;;3.78;3.47;;;8.70;99.90;;;;;;5086562;28;20204;-71
2021/11/08 02:52:17;;;;;;;4.30;3.97;;;8.80;99.90;;;;;;5090384;28;20294;-70
2021/11/08 02:54:51;;;;;;;2.85;2.55;;;8.70;99.90;;;;;;5103769;28;20323;-74
2021/11/08 02:57:24;;;;;;;3.15;2.80;;;8.70;99.90;;;;;;5092848;28;20269;-72
2021/11/08 02:59:57;;;;;;;3.30;3.00;;;8.80;99.90;;;;;;5100231;28;20250;-69
2021/11/08 03:02:28;;;;;;;3.25;2.78;;;8.80;99.90;;;;;;5089542;28;20293;-69
2021/11/08 03:04:59;;;;;;;3.63;3.33;;;8.80;99.90;;;;;;5095318;28;20699;-72
2021/11/08 03:07:36;;;;;;;3.22;3.00;;;8.80;99.90;;;;;;5090931;28;20215;-69
2021/11/08 03:10:09;;;;;;;2.50;2.30;;;8.80;99.90;;;;;;5110560;27;20207;-73
2021/11/08 03:12:40;;;;;;;3.65;2.17;;;8.70;99.90;;;;;;5101730;28;20634;-69
2021/11/08 03:15:14;;;;;;;3.47;3.17;;;8.70;99.90;;;;;;5110372;28;20280;-73
2021/11/08 03:17:46;;;;;;;2.78;2.58;;;8.70;99.90;;;;;;5116744;27;20330;-72
2021/11/08 03:20:20;;;;;;;2.35;2.15;;;8.70;99.90;;;;;;5106640;28;20261;-73
2021/11/08 03:22:56;;;;;;;2.40;1.98;;;8.70;99.90;;;;;;5096794;28;20550;-70
2021/11/08 03:25:36;;;;;;;2.10;1.85;;;8.70;99.90;;;;;;5095298;28;20312;-69
2021/11/08 03:28:10;;;;;;;2.25;2.05;;;8.70;99.90;;;;;;5096681;28;20666;-70
2021/11/08 03:30:45;;;;;;;2.67;2.00;;;8.80;99.90;;;;;;5095372;28;20224;-70
2021/11/08 03:33:19;;;;;;;2.58;2.30;;;8.80;99.90;;;;;;5108753;28;20273;-69
2021/11/08 03:35:51;;;;;;;2.88;2.63;;;8.70;99.90;;;;;;5117447;27;20208;-70
2021/11/08 03:38:23;;;;;;;2.80;2.60;;;8.80;99.90;;;;;;5112065;28;20327;-70
2021/11/08 03:40:54;;;;;;;2.72;2.40;;;8.80;99.90;;;;;;5109584;27;20219;-70
2021/11/08 03:43:25;;;;;;;3.60;2.30;;;8.80;99.90;;;;;;5104483;28;20627;-70
2021/11/08 03:45:57;;;;;;;3.72;2.30;;;8.70;99.90;;;;;;5107835;27;20243;-70
2021/11/08 03:48:28;;;;;;;2.63;2.28;;;8.70;99.90;;;;;;5109407;28;20303;-76
2021/11/08 03:50:59;;;;;;;2.40;2.20;;;8.70;99.90;;;;;;5101046;27;20278;-72
2021/11/08 03:53:34;;;;;;;2.45;2.20;;;8.60;99.90;;;;;;5116845;27;20312;-73
2021/11/08 03:56:06;;;;;;;3.25;2.47;;;8.70;99.90;;;;;;5097941;27;20231;-70
2021/11/08 03:58:37;;;;;;;2.50;2.10;;;8.60;99.90;;;;;;5109631;28;20254;-72
2021/11/08 04:01:08;;;;;;;2.22;2.03;;;8.60;99.90;;;;;;5103421;28;20266;-70
2021/11/08 04:03:40;;;;;;;3.00;2.20;;;8.60;99.90;;;;;;5104174;28;20272;-71
2021/11/08 04:06:11;;;;;;;2.50;2.30;;;8.60;99.90;;;;;;5103634;28;20254;-70
2021/11/08 04:08:43;;;;;;;3.03;2.55;;;8.50;99.90;;;;;;5104983;28;20255;-71
2021/11/08 04:11:14;;;;;;;2.40;2.20;;;8.50;99.90;;;;;;5099426;28;20244;-70
2021/11/08 04:13:45;;;;;;;3.03;2.70;;;8.50;99.90;;;;;;5112795;28;20294;-74
2021/11/08 04:16:18;;;;;;;2.95;2.65;;;8.50;99.90;;;;;;5105070;27;20204;-70
2021/11/08 04:18:51;;;;;;;3.08;2.78;;;8.50;99.90;;;;;;5095727;28;20256;-72
2021/11/08 04:21:23;;;;;;;3.08;2.78;;;8.50;99.90;;;;;;5095320;28;20301;-76
2021/11/08 04:23:56;;;;;;;2.65;2.45;;;8.50;99.90;;;;;;5113271;28;20295;-70
2021/11/08 04:26:28;;;;;;;2.25;2.05;;;8.50;99.90;;;;;;5101968;28;20243;-70
2021/11/08 04:29:01;;;;;;;2.22;2.03;;;8.50;99.90;;;;;;5115108;28;20295;-72
2021/11/08 04:31:34;;;;;;;2.15;1.90;;;8.50;99.90;;;;;;5098918;28;20665;-70
2021/11/08 04:34:17;;;;;;;4.20;2.50;;;8.50;99.90;;;;;;5105469;28;20231;-71
2021/11/08 04:40:03;;;;;;;2.60;1.63;;;8.50;99.90;;;;;;5047391;28;20317;-70
2021/11/08 04:42:38;;;;;;;2.90;1.90;;;8.50;99.90;;;;;;5097061;28;20303;-70
2021/11/08 04:45:26;;;;;;;2.50;1.80;;;8.50;99.90;;;;;;5099072;28;20250;-73
2021/11/08 04:50:46;;;;;;;1.77;1.67;;;8.50;99.90;;;;;;5096691;28;20533;-75
2021/11/08 04:53:33;;;;;;;4.50;2.00;;;8.50;99.90;;;;;;5107709;28;20243;-74
2021/11/08 05:30:01;;;;;;;1.67;1.58;;;8.70;99.90;;;;;;5101137;28;20243;-69
2021/11/08 05:32:33;;;;;;;2.20;2.00;;;8.70;99.90;;;;;;5112256;28;20550;-73
2021/11/08 05:35:07;;;;;;;1.55;1.45;;;8.70;99.90;;;;;;5101740;28;20251;-70
2021/11/08 05:37:41;;;;;;;2.00;1.90;;;8.70;99.90;;;;;;5108464;28;20222;-74
2021/11/08 05:40:15;;;;;;;1.58;1.27;;;8.70;99.90;;;;;;5108026;28;20311;-70
2021/11/08 05:42:48;;;;;;;1.70;1.60;;;8.70;99.90;;;;;;5093966;28;20346;-71
2021/11/08 05:45:20;;;;;;;2.90;2.10;;;8.70;99.90;;;;;;5102439;28;20719;-70
2021/11/08 05:47:51;;;;;;;1.67;1.58;;;8.70;99.90;;;;;;5099740;28;20250;-69
2021/11/08 05:50:22;;;;;;;2.75;1.73;;;8.80;99.90;;;;;;5097607;28;20324;-70
2021/11/08 05:52:55;;;;;;;2.15;1.65;;;8.70;99.90;;;;;;5110759;28;20728;-74
2021/11/08 05:55:34;;;;;;;1.90;1.70;;;8.70;99.90;;;;;;5102875;28;20570;-72
2021/11/08 05:58:30;;;;;;;2.65;1.90;;;8.70;99.90;;;;;;5091181;28;20307;-69
2021/11/08 06:51:23;;;;;;;2.10;1.92;;;8.50;99.90;;;;;;5095145;28;20582;-70
2021/11/08 06:54:00;;;;;;;2.05;1.60;;;8.40;99.90;;;;;;5104519;28;20295;-69
2021/11/08 06:56:35;;;;;;;1.77;1.67;;;8.40;99.90;;;;;;5092759;28;20240;-69
2021/11/08 06:59:06;;;;;;;1.40;1.30;;;8.30;99.90;;;;;;5092936;28;20223;-70
2021/11/08 07:01:37;;;;;;;2.38;1.42;;;8.30;99.90;;;;;;5095186;28;20216;-70
2021/11/08 07:04:08;;;;;;;1.58;1.10;;;8.20;99.90;;;;;;5100811;28;20271;-74
2021/11/08 07:06:41;;;;;;;1.70;1.33;;;8.20;99.90;;;;;;5099058;28;20246;-70
2021/11/08 07:09:13;;;;;;;2.22;1.42;;;8.20;99.90;;;;;;5110442;28;20258;-69
2021/11/08 07:11:45;;;;;;;2.05;1.30;;;8.20;99.90;;;;;;5105432;28;20210;-70
2021/11/08 07:14:16;;;;;;;1.67;1.58;;;8.20;99.90;;;;;;5101824;28;20243;-69
2021/11/08 07:16:47;;;;;;;2.30;1.70;;;8.20;99.90;;;;;;5098541;28;20272;-70
2021/11/08 07:19:19;;;;;;;1.95;1.38;;;8.30;99.90;;;;;;5103373;28;20538;-70
2021/11/08 07:21:52;;;;;;;1.85;1.67;;;8.40;99.90;;;;;;5102376;28;20584;-70
2021/11/08 07:24:23;;;;;;;2.20;2.10;;;8.40;99.90;;;;;;5102163;28;20209;-70
2021/11/08 07:26:54;;;;;;;1.63;1.52;;;8.50;99.90;;;;;;5097893;28;20594;-69
2021/11/08 07:29:25;;;;;;;1.85;1.65;;;8.50;99.90;;;;;;5110378;28;20207;-70
2021/11/08 07:31:58;;;;;;;2.08;1.52;;;8.50;99.90;;;;;;5099454;28;20240;-69
2021/11/08 07:34:29;;;;;;;2.67;1.70;;;8.50;99.90;;;;;;5102665;28;20317;-70
2021/11/08 07:37:01;;;;;;;3.55;1.27;;;8.50;99.90;;;;;;5089051;28;20244;-69
2021/11/08 07:39:33;;;;;;;1.38;1.27;;;8.60;99.90;;;;;;5093727;28;20238;-69
2021/11/08 07:42:05;;;;;;;2.45;1.73;;;8.50;99.90;;;;;;5110156;28;20212;-69
2021/11/08 07:44:36;;;;;;;1.52;1.35;;;8.50;99.90;;;;;;5099029;28;20308;-69
2021/11/08 07:47:07;;;;;;;1.73;1.30;;;8.50;99.90;;;;;;5100902;28;20219;-69
2021/11/08 07:49:42;;;;;;;3.38;1.50;;;8.40;99.90;;;;;;5094382;28;20215;-69
2021/11/08 07:52:15;;;;;;;1.80;1.60;;;8.30;99.90;;;;;;5101389;28;20302;-69
2021/11/08 07:54:46;;;;;;;1.95;1.85;;;8.30;99.90;;;;;;5108217;28;20248;-69
2021/11/08 07:57:17;;;;;;;1.95;1.85;;;8.30;99.90;;;;;;5097783;28;20284;-69
2021/11/08 07:59:48;;;;;;;2.65;1.75;;;8.30;99.90;;;;;;5096532;28;20244;-69
2021/11/08 08:02:19;;;;;;;2.10;1.65;;;8.20;99.90;;;;;;5103916;28;20433;-69
2021/11/08 08:04:50;;;;;;;4.95;2.30;;;8.20;99.90;;;;;;5106311;28;20217;-70
2021/11/08 08:07:23;;;;;;;2.15;1.70;;;8.20;99.90;;;;;;5109389;28;20297;-69
2021/11/08 08:09:55;;;;;;;3.05;1.80;;;8.20;99.90;;;;;;5105464;28;20700;-70
2021/11/08 08:12:27;;;;;;;1.60;1.50;;;8.20;99.90;;;;;;5104732;28;20235;-69
2021/11/08 08:14:58;;;;;;;1.40;1.30;;;8.20;99.90;;;;;;5112152;28;20658;-69
2021/11/08 08:17:29;;;;;;;2.20;2.00;;;8.20;99.90;;;;;;5113002;28;20243;-69
2021/11/08 08:20:00;;;;;;;2.15;1.90;;;8.30;99.90;;;;;;5092435;28;20267;-69
2021/11/08 08:22:32;;;;;;;2.15;1.73;;;8.30;99.90;;;;;;5105541;28;20208;-68
2021/11/08 08:25:04;;;;;;;1.40;1.25;;;8.30;99.90;;;;;;5094749;28;20295;-69
2021/11/08 08:27:37;;;;;;;1.75;1.65;;;8.30;99.90;;;;;;5095542;28;20302;-69
2021/11/08 08:30:10;;;;;;;1.40;1.17;;;8.30;99.90;;;;;;5111681;28;20299;-68
2021/11/08 08:32:41;;;;;;;1.67;1.10;;;8.30;99.90;;;;;;5103129;28;20656;-69
2021/11/08 08:35:12;;;;;;;1.30;1.20;;;8.30;99.90;;;;;;5102660;28;20654;-69
2021/11/08 08:37:45;;;;;;;2.28;1.35;;;8.30;99.90;;;;;;5110673;28;20337;-69
2021/11/08 08:40:16;;;;;;;1.58;1.13;;;8.20;99.90;;;;;;5092943;28;20307;-68
2021/11/08 08:42:48;;;;;;;3.38;1.23;;;8.10;99.90;;;;;;5092214;28;20303;-67
2021/11/08 08:45:19;;;;;;;1.45;1.35;;;8.00;99.90;;;;;;5102857;27;20266;-68
2021/11/08 08:47:50;;;;;;;2.58;1.50;;;8.00;99.90;;;;;;5090293;28;20339;-69
2021/11/08 08:50:21;;;;;;;1.60;1.33;;;8.00;99.90;;;;;;5091417;28;20216;-68
2021/11/08 08:52:54;;;;;;;2.50;1.40;;;8.00;99.90;;;;;;5107543;28;20298;-68
2021/11/08 08:55:25;;;;;;;1.25;1.00;;;8.10;99.90;;;;;;5091986;28;20248;-68
2021/11/08 08:57:57;;;;;;;1.60;1.00;;;8.10;99.90;;;;;;5097957;28;20215;-68
2021/11/08 09:00:28;;;;;;;2.63;1.70;;;8.10;99.90;;;;;;5099284;28;20260;-67
2021/11/08 09:03:00;;;;;;;1.50;1.40;;;8.10;99.90;;;;;;5094793;28;20277;-69
2021/11/08 09:05:31;;;;;;;1.20;1.10;;;8.20;99.90;;;;;;5096138;28;20251;-68
2021/11/08 09:08:04;;;;;;;1.73;1.60;;;8.10;99.90;;;;;;5090741;28;20216;-68
2021/11/08 09:10:36;;;;;;;1.60;1.50;;;8.10;99.90;;;;;;5092531;28;20213;-68
2021/11/08 09:13:08;;;;;;;2.55;1.50;;;8.00;99.90;;;;;;5102563;28;20255;-68
2021/11/08 09:15:41;;;;;;;1.67;1.30;;;7.90;99.90;;;;;;5091391;28;20336;-68
2021/11/08 09:18:15;;;;;;;1.85;1.50;;;7.80;99.90;;;;;;5091543;28;20251;-68
2021/11/08 09:20:46;;;;;;;1.40;0.95;;;7.70;99.90;;;;;;5090737;28;20223;-68
2021/11/08 09:23:19;;;;;;;1.35;1.25;;;7.60;99.90;;;;;;5100369;28;20311;-68
2021/11/08 09:25:50;;;;;;;2.35;1.30;;;7.50;99.90;;;;;;5102532;28;20211;-68
2021/11/08 09:28:21;;;;;;;1.20;1.10;;;7.40;99.90;;;;;;5102773;28;20693;-68
2021/11/08 09:30:52;;;;;;;2.10;1.63;;;7.30;99.90;;;;;;5090520;28;20247;-68
2021/11/08 09:33:24;;;;;;;1.40;1.30;;;7.20;99.90;;;;;;5099453;28;20269;-68
2021/11/08 09:36:00;;;;;;;2.30;1.52;;;7.10;99.90;;;;;;5100099;28;20280;-69
2021/11/08 09:38:33;;;;;;;1.85;1.52;;;7.10;99.90;;;;;;5100185;28;20628;-68
2021/11/08 09:41:07;;;;;;;1.95;1.65;;;6.90;99.90;;;;;;5095705;28;20267;-68
2021/11/08 09:43:42;;;;;;;3.15;1.52;;;6.90;99.90;;;;;;5112017;28;20302;-68
2021/11/08 09:46:14;;;;;;;1.67;1.58;;;6.80;99.90;;;;;;5110848;28;20298;-69
2021/11/08 09:48:45;;;;;;;2.05;1.73;;;6.70;99.90;;;;;;5106090;28;20212;-73
2021/11/08 09:51:18;;;;;;;1.65;1.55;;;6.70;99.90;;;;;;5092003;28;20247;-72
2021/11/08 09:53:51;;;;;;;1.83;1.50;;;6.60;99.90;;;;;;5112235;28;20691;-68
2021/11/08 09:56:22;;;;;;;4.47;2.15;;;6.60;99.90;;;;;;5090603;28;20313;-73
2021/11/08 09:58:57;;;;;;;1.60;1.50;;;6.40;99.90;;;;;;5095982;28;20253;-69
2021/11/08 10:01:47;;;;;;;3.45;2.30;;;6.30;99.90;;;;;;5101109;28;20314;-68
2021/11/08 10:04:19;;;;;;;3.10;1.92;;;6.30;99.90;;;;;;5104496;28;20231;-69
2021/11/08 10:06:51;;;;;;;2.97;2.33;;;6.30;99.90;;;;;;5094052;28;20648;-68
2021/11/08 10:09:24;;;;;;;1.65;1.38;;;6.20;99.90;;;;;;5102712;28;20243;-69
2021/11/08 10:11:56;;;;;;;1.90;1.70;;;6.10;99.90;;;;;;5091480;28;20287;-72
2021/11/08 10:14:27;;;;;;;2.85;1.45;;;6.10;99.90;;;;;;5094809;28;20239;-69
2021/11/08 10:17:01;;;;;;;1.90;1.52;;;6.00;99.90;;;;;;5091195;28;20299;-73
2021/11/08 10:19:35;;;;;;;1.83;1.73;;;6.00;99.90;;;;;;5097892;28;20239;-73
2021/11/08 10:22:06;;;;;;;1.83;1.60;;;6.00;99.90;;;;;;5100859;28;20224;-70
2021/11/08 10:24:41;;;;;;;418.27;60.58;;;6.00;99.90;;;;;;5108591;28;20618;-72
2021/11/08 10:27:13;;;;;;;2.75;2.20;;;6.00;99.90;;;;;;5108437;28;20298;-70
2021/11/08 10:29:46;;;;;;;408.60;65.03;;;5.90;99.90;;;;;;5100969;28;20251;-71
2021/11/08 10:32:20;;;;;;;2.30;1.80;;;5.90;99.90;;;;;;5100888;28;20623;-72
2021/11/08 10:34:56;;;;;;;1.75;1.65;;;5.80;99.90;;;;;;5103989;28;20314;-69
2021/11/08 10:37:28;;;;;;;1.67;1.58;;;5.70;99.90;;;;;;5099438;28;20294;-71
2021/11/08 10:40:01;;;;;;;1.63;1.52;;;5.60;99.90;;;;;;5103036;28;20596;-72
2021/11/08 10:42:56;;;;;;;2.13;1.92;;;5.60;99.90;;;;;;5105170;28;20717;-68
2021/11/08 10:45:27;;;;;;;1.80;1.70;;;5.50;99.90;;;;;;5094870;28;20243;-71
2021/11/08 10:48:02;;;;;;;1.50;1.40;;;5.50;99.90;;;;;;5101088;28;20250;-69
2021/11/08 10:50:41;;;;;;;1.60;1.50;;;5.40;99.90;;;;;;5090257;28;20249;-70
2021/11/08 10:53:12;;;;;;;2.33;1.95;;;5.40;99.90;;;;;;5100223;28;20250;-68
2021/11/08 10:55:48;;;;;;;2.13;1.77;;;5.30;99.90;;;;;;5099778;28;20623;-71
2021/11/08 10:58:21;;;;;;;3.13;1.50;;;5.30;99.90;;;;;;5102539;28;20530;-69
2021/11/08 11:00:55;;;;;;;1.73;1.45;;;5.30;99.90;;;;;;5105829;28;20295;-69
2021/11/08 11:03:31;;;;;;;2.33;2.13;;;5.30;99.90;;;;;;5104076;28;20673;-72
2021/11/08 11:06:05;;;;;;;1.65;1.35;;;5.20;99.90;;;;;;5106607;28;20212;-70
2021/11/08 11:08:36;;;;;;;3.20;2.40;;;5.20;99.90;;;;;;5100190;28;20235;-71
2021/11/08 11:11:09;;;;;;;3.75;2.05;;;5.10;99.90;;;;;;5090856;28;20212;-70
2021/11/08 11:13:40;;;;;;;2.83;1.77;;;5.10;99.90;;;;;;5099505;28;20254;-68
2021/11/08 11:16:11;;;;;;;2.40;2.15;;;5.00;99.90;;;;;;5101333;28;20220;-73
2021/11/08 11:18:42;;;;;;;1.90;1.80;;;5.00;99.90;;;;;;5091853;28;20586;-69
2021/11/08 11:21:20;;;;;;;2.42;2.10;;;5.00;99.90;;;;;;5091416;28;20216;-67
2021/11/08 11:23:54;;;;;;;5.30;2.47;;;5.00;99.90;;;;;;5093861;28;20255;-69
2021/11/08 11:26:29;;;;;;;2.95;2.60;;;5.00;99.90;;;;;;5093951;28;20685;-69
2021/11/08 11:29:01;;;;;;;3.05;2.60;;;5.00;99.90;;;;;;5110760;28;20243;-69
2021/11/08 11:31:38;;;;;;;2.67;2.47;;;5.00;99.90;;;;;;5110490;28;20241;-70
2021/11/08 11:34:16;;;;;;;3.00;2.60;;;5.00;99.90;;;;;;5110802;28;20302;-69
2021/11/08 11:36:47;;;;;;;2.50;2.30;;;5.00;99.90;;;;;;5112521;28;20208;-71
2021/11/08 11:39:20;;;;;;;2.80;2.60;;;4.90;99.90;;;;;;5104007;28;20307;-72
2021/11/08 11:42:00;;;;;;;1027.50;164.32;;;5.00;99.90;;;;;;5092450;28;20277;-73
2021/11/08 11:44:34;;;;;;;191.98;30.17;;;4.90;99.90;;;;;;5106373;28;20393;-73
2021/11/08 11:47:15;;;;;;;3.30;2.13;;;4.90;99.90;;;;;;5094507;28;20235;-74
2021/11/08 11:49:47;;;;;;;2.65;2.45;;;4.80;99.90;;;;;;5099272;27;20208;-69
2021/11/08 11:52:18;;;;;;;5.18;2.65;;;4.80;99.90;;;;;;5110154;28;20713;-69
2021/11/08 11:54:49;;;;;;;4.70;2.60;;;4.90;99.90;;;;;;5109301;28;20209;-69
2021/11/08 11:57:22;;;;;;;2.38;1.70;;;4.90;99.90;;;;;;5093294;28;20280;-69
2021/11/08 11:59:53;;;;;;;2.22;2.00;;;5.00;99.90;;;;;;5092971;28;20236;-70
2021/11/08 12:02:26;;;;;;;2.50;2.30;;;5.10;99.90;;;;;;5104286;28;20701;-69
2021/11/08 12:04:57;;;;;;;2.75;2.42;;;5.10;99.90;;;;;;5110520;28;20239;-69
2021/11/08 12:07:28;;;;;;;2.85;2.55;;;5.10;99.90;;;;;;5093605;28;20223;-69
2021/11/08 12:10:02;;;;;;;3.70;2.17;;;5.10;99.90;;;;;;5097681;28;20211;-69
2021/11/08 12:12:36;;;;;;;3.97;2.42;;;5.10;99.90;;;;;;5100334;28;20239;-70
2021/11/08 12:15:09;;;;;;;2.92;2.72;;;5.10;99.90;;;;;;5102607;28;20243;-69
2021/11/08 12:17:42;;;;;;;2.40;2.20;;;5.20;99.90;;;;;;5103147;28;20241;-70
2021/11/08 12:20:15;;;;;;;2.83;2.50;;;5.20;99.90;;;;;;5095526;28;20234;-73
2021/11/08 12:22:47;;;;;;;2.65;2.45;;;5.20;99.90;;;;;;5093917;28;20263;-68
2021/11/08 12:25:20;;;;;;;3.25;2.42;;;5.20;99.90;;;;;;5094033;28;20208;-72
2021/11/08 12:27:55;;;;;;;7.13;3.28;;;5.30;99.90;;;;;;5093945;28;20289;-71
2021/11/08 12:30:30;;;;;;;3.85;3.00;;;5.40;99.90;;;;;;5091862;28;20272;-70
2021/11/08 12:33:03;;;;;;;3.25;2.33;;;5.40;99.90;;;;;;5092728;28;20251;-69
2021/11/08 12:35:36;;;;;;;2.65;2.25;;;5.40;99.90;;;;;;5098922;28;20277;-70
2021/11/08 12:38:18;;;;;;;3.42;2.83;;;5.30;99.90;;;;;;5095929;28;20293;-69
2021/11/08 12:40:51;;;;;;;2.85;2.17;;;5.30;99.90;;;;;;5091390;28;20379;-69
2021/11/08 12:43:27;;;;;;;3.00;2.70;;;5.30;99.90;;;;;;5105303;28;20263;-69
2021/11/08 12:46:10;;;;;;;2.80;2.50;;;5.20;99.90;;;;;;5103608;28;20211;-69
2021/11/08 12:48:42;;;;;;;844.15;133.25;;;5.10;99.90;;;;;;5098900;28;20275;-71
2021/11/08 12:51:14;;;;;;;1093.80;171.75;;;5.20;99.90;;;;;;5116926;28;20239;-69
2021/11/08 12:53:48;;;;;;;1177.70;189.18;;;5.30;99.90;;;;;;5108016;28;20239;-69
2021/11/08 12:56:28;;;;;;;3.13;2.80;;;5.30;99.90;;;;;;5107284;28;20295;-69
2021/11/08 12:59:02;;;;;;;2.78;2.30;;;5.20;99.90;;;;;;5109307;28;20223;-69
2021/11/08 13:01:40;;;;;;;2.90;2.60;;;5.10;99.90;;;;;;5097696;28;20235;-70
2021/11/08 13:04:18;;;;;;;4.65;2.72;;;5.00;99.90;;;;;;5102553;28;20262;-69
2021/11/08 13:06:50;;;;;;;4.68;3.33;;;5.00;99.90;;;;;;5096127;28;20261;-72
2021/11/08 13:09:23;;;;;;;3.63;3.13;;;4.90;99.90;;;;;;5112755;28;20289;-71
2021/11/08 13:11:56;;;;;;;2.95;2.72;;;4.90;99.90;;;;;;5109292;28;20212;-69
2021/11/08 13:14:34;;;;;;;3.53;2.70;;;4.90;99.90;;;;;;5093999;28;20208;-69
2021/11/08 13:17:10;;;;;;;3.65;3.10;;;5.00;99.90;;;;;;5105115;28;20215;-71
2021/11/08 13:19:50;;;;;;;3.30;3.00;;;4.90;99.90;;;;;;5099420;28;20216;-73
2021/11/08 13:22:43;;;;;;;3.25;2.60;;;4.90;99.90;;;;;;5106016;28;20226;-69
2021/11/08 13:25:18;;;;;;;3.00;2.47;;;4.90;99.90;;;;;;5092016;28;20307;-73
2021/11/08 13:27:58;;;;;;;4.50;3.28;;;5.00;99.90;;;;;;5108467;28;20287;-71
2021/11/08 13:30:37;;;;;;;2.67;2.47;;;4.90;99.90;;;;;;5096573;28;20300;-69
2021/11/08 13:33:09;;;;;;;3.22;2.80;;;4.90;99.90;;;;;;5099992;28;20233;-70
2021/11/08 13:35:41;;;;;;;3.55;2.70;;;4.80;99.90;;;;;;5102341;28;20366;-69
2021/11/08 13:38:15;;;;;;;2.80;2.60;;;4.70;99.90;;;;;;5102196;28;20239;-70
2021/11/08 13:40:50;;;;;;;3.17;2.63;;;4.70;99.90;;;;;;5105215;28;20277;-69
2021/11/08 13:43:25;;;;;;;3.70;2.67;;;4.70;99.90;;;;;;5100273;28;20746;-69
2021/11/08 13:46:00;;;;;;;4.40;3.03;;;4.70;99.90;;;;;;5098974;28;20268;-69
2021/11/08 13:48:33;;;;;;;4.05;3.75;;;4.80;99.90;;;;;;5097088;28;20293;-69
2021/11/08 13:51:07;;;;;;;34.20;8.52;;;4.80;99.90;;;;;;5100856;28;20282;-69
2021/11/08 13:53:39;;;;;;;185.90;31.17;;;4.70;99.90;;;;;;5100954;28;20255;-71
2021/11/08 13:56:12;;;;;;;110.05;25.55;;;4.80;99.90;;;;;;5104831;28;20258;-70
2021/11/08 13:58:51;;;;;;;3.20;2.90;;;4.80;99.90;;;;;;5105491;28;20336;-72
2021/11/08 14:01:29;;;;;;;2.92;2.40;;;4.80;99.90;;;;;;5098079;28;20343;-72
2021/11/08 14:04:01;;;;;;;3.03;2.72;;;4.80;99.90;;;;;;5102357;28;20692;-70
2021/11/08 14:06:34;;;;;;;2.50;2.10;;;4.70;99.90;;;;;;5099991;28;20248;-70
2021/11/08 14:09:08;;;;;;;3.10;2.90;;;4.70;99.90;;;;;;5104078;28;20254;-73
2021/11/08 14:11:41;;;;;;;3.38;3.08;;;4.60;99.90;;;;;;5111994;28;20591;-69
2021/11/08 14:14:13;;;;;;;3.08;2.72;;;4.50;99.90;;;;;;5098258;28;20333;-69
2021/11/08 14:16:49;;;;;;;3.25;2.33;;;4.50;99.90;;;;;;5111993;28;20236;-70
2021/11/08 14:19:21;;;;;;;2.88;2.65;;;4.50;99.90;;;;;;5096319;28;20251;-69
2021/11/08 14:21:54;;;;;;;3.35;2.55;;;4.50;99.90;;;;;;5112236;28;20685;-75
2021/11/08 14:24:26;;;;;;;4.03;2.90;;;4.40;99.90;;;;;;5108644;28;20311;-69
2021/11/08 14:26:59;;;;;;;4.38;2.85;;;4.40;99.90;;;;;;5100411;28;20208;-71
2021/11/08 14:29:32;;;;;;;3.20;2.90;;;4.40;99.90;;;;;;5091130;28;20253;-73
2021/11/08 14:32:07;;;;;;;2.70;2.50;;;4.40;99.90;;;;;;5088807;28;20269;-68
2021/11/08 14:34:42;;;;;;;3.17;2.90;;;4.40;99.90;;;;;;5102461;28;20227;-71
2021/11/08 14:37:15;;;;;;;3.35;2.60;;;4.40;99.90;;;;;;5104506;28;20660;-69
2021/11/08 14:39:50;;;;;;;3.28;2.70;;;4.30;99.90;;;;;;5105241;28;20619;-69
2021/11/08 14:42:23;;;;;;;3.38;3.08;;;4.20;99.90;;;;;;5094093;28;20583;-69
2021/11/08 14:44:56;;;;;;;3.75;3.13;;;4.20;99.90;;;;;;5108962;28;20262;-69
2021/11/08 14:47:30;;;;;;;6.53;3.28;;;4.10;99.90;;;;;;5103278;28;20247;-69
2021/11/08 14:50:03;;;;;;;3.30;3.00;;;4.10;99.90;;;;;;5100860;28;20231;-68
2021/11/08 14:52:37;;;;;;;11.27;5.30;;;4.10;99.90;;;;;;5091187;28;20243;-72
2021/11/08 14:55:14;;;;;;;4.40;3.42;;;4.10;99.90;;;;;;5098070;28;20303;-70
2021/11/08 14:57:46;;;;;;;246.07;33.70;;;4.10;99.90;;;;;;5091340;28;20236;-73